Time;durP1;ratioP1;P1;durP2;ratioP2;P2;SDS_P1;SDS_P2;PMS_P1;PMS_P2;Temp;Humidity;BMP_temperature;BMP_pressure;BME280_temperature;BME280_humidity;BME280_pressure;Samples;Min_cycle;Max_cycle;Signal;HPM_P1;HPM_P2
2022/07/25 00:02:11;;;;;;;12.27;11.07;;;;;;;24.30;60.69;157619.00;5090710;28;20892;-78
2022/07/25 00:04:40;;;;;;;11.70;10.70;;;;;;;24.22;60.98;157599.31;5090838;28;20543;-78
2022/07/25 00:07:07;;;;;;;12.70;11.50;;;;;;;24.19;61.17;157590.22;5072918;28;20460;-78
2022/07/25 00:09:33;;;;;;;12.03;10.83;;;;;;;24.15;61.38;157581.03;5090640;28;20526;-79
2022/07/25 00:12:00;;;;;;;12.37;11.10;;;;;;;24.10;61.29;157567.97;5093021;28;20795;-78
2022/07/25 00:14:27;;;;;;;12.33;11.03;;;;;;;24.09;61.58;157564.06;5093326;28;20980;-79
2022/07/25 00:16:54;;;;;;;14.77;10.70;;;;;;;24.08;61.54;157562.75;5084697;28;20511;-78
2022/07/25 00:19:21;;;;;;;13.20;12.10;;;;;;;24.07;61.29;157560.06;5072868;28;20501;-79
2022/07/25 00:21:50;;;;;;;11.77;10.77;;;;;;;24.06;61.32;157557.47;5091546;28;20476;-78
2022/07/25 00:24:16;;;;;;;13.70;11.20;;;;;;;24.03;61.53;157549.63;5090134;28;20430;-78
2022/07/25 00:26:43;;;;;;;12.17;11.00;;;;;;;24.00;61.32;157541.78;5089432;28;20476;-78
2022/07/25 00:29:10;;;;;;;12.40;11.30;;;;;;;23.99;61.63;157539.13;5090763;28;20463;-78
2022/07/25 00:31:37;;;;;;;10.90;10.00;;;;;;;23.94;61.85;157526.06;5089910;28;20541;-78
2022/07/25 00:34:03;;;;;;;11.67;10.57;;;;;;;23.91;61.89;157516.91;5089272;28;20435;-78
2022/07/25 00:36:30;;;;;;;11.80;10.67;;;;;;;23.89;61.90;157513.00;5089588;28;20611;-78
2022/07/25 00:38:58;;;;;;;11.83;10.70;;;;;;;23.84;61.62;157499.94;5089536;28;20610;-85
2022/07/25 00:41:25;;;;;;;13.43;11.37;;;;;;;23.78;62.29;157484.22;5072959;28;20533;-85
2022/07/25 00:43:52;;;;;;;11.43;10.33;;;;;;;23.74;62.02;157472.47;5088845;28;20852;-85
2022/07/25 00:46:18;;;;;;;12.63;11.53;;;;;;;23.69;62.72;157460.72;5093102;28;20421;-85
2022/07/25 00:48:45;;;;;;;11.87;10.80;;;;;;;23.63;63.11;157446.34;5093533;28;20459;-85
2022/07/25 00:51:12;;;;;;;11.67;10.63;;;;;;;23.57;62.94;157430.63;5093191;28;20440;-85
2022/07/25 00:53:39;;;;;;;12.13;11.03;;;;;;;23.54;63.38;157421.47;5073373;28;20472;-85
2022/07/25 00:56:11;;;;;;;12.50;11.43;;;;;;;23.69;62.25;157460.72;5092723;28;20432;-85
2022/07/25 00:58:37;;;;;;;11.87;10.77;;;;;;;23.59;62.14;157435.84;5093341;28;20839;-85
2022/07/25 01:01:04;;;;;;;11.97;10.77;;;;;;;23.50;62.20;157412.34;5094647;28;20967;-85
2022/07/25 01:03:31;;;;;;;11.73;10.73;;;;;;;23.42;62.59;157390.13;5074245;28;20883;-85
2022/07/25 01:05:58;;;;;;;11.33;10.33;;;;;;;23.45;62.78;157397.97;5093354;28;20439;-85
2022/07/25 01:08:25;;;;;;;12.27;11.17;;;;;;;23.40;63.09;157384.91;5094888;28;20437;-85
2022/07/25 01:10:52;;;;;;;11.63;10.63;;;;;;;23.39;63.48;157382.28;5095187;28;20425;-85
2022/07/25 01:13:20;;;;;;;12.73;11.50;;;;;;;23.36;63.88;157374.38;5091778;28;20488;-85
2022/07/25 01:15:46;;;;;;;12.43;11.33;;;;;;;23.36;63.76;157374.38;5083515;28;20466;-85
2022/07/25 01:18:13;;;;;;;12.37;11.10;;;;;;;23.33;64.29;157366.53;5093643;28;20550;-85
2022/07/25 01:20:42;;;;;;;12.07;10.97;;;;;;;23.33;64.13;157366.53;5074351;28;20498;-85
2022/07/25 01:23:09;;;;;;;11.97;10.87;;;;;;;23.31;64.47;157361.31;5092937;28;20448;-85
2022/07/25 01:25:35;;;;;;;13.37;12.07;;;;;;;23.32;65.00;157365.25;5094029;28;20532;-85
2022/07/25 01:28:02;;;;;;;12.77;11.53;;;;;;;23.29;64.68;157357.41;5094107;28;20433;-85
2022/07/25 01:30:29;;;;;;;13.07;11.90;;;;;;;23.28;64.78;157353.47;5091110;28;20453;-85
2022/07/25 01:32:55;;;;;;;12.43;11.33;;;;;;;23.25;64.91;157346.94;5093472;28;20432;-85
2022/07/25 01:35:22;;;;;;;12.27;11.17;;;;;;;23.26;64.98;157349.56;5075832;28;20469;-85
2022/07/25 01:37:50;;;;;;;12.60;11.40;;;;;;;23.23;65.26;157340.41;5094933;28;20502;-85
2022/07/25 01:40:17;;;;;;;13.37;12.10;;;;;;;23.22;65.50;157339.06;5083602;28;20453;-85
2022/07/25 01:42:44;;;;;;;13.87;12.60;;;;;;;23.21;65.72;157336.50;5092328;28;20453;-85
2022/07/25 01:45:12;;;;;;;13.50;12.20;;;;;;;23.24;65.19;157343.03;5075392;28;20487;-85
2022/07/25 01:47:38;;;;;;;12.20;11.10;;;;;;;23.21;65.26;157336.50;5092364;28;20940;-85
2022/07/25 01:50:06;;;;;;;13.40;12.10;;;;;;;23.21;65.90;157335.19;5091327;28;20476;-85
2022/07/25 01:52:33;;;;;;;13.47;12.27;;;;;;;23.20;65.79;157332.53;5094411;28;20437;-85
2022/07/25 01:55:01;;;;;;;14.07;12.67;;;;;;;23.19;66.02;157331.28;5092637;28;20527;-85
2022/07/25 01:57:29;;;;;;;13.20;12.00;;;;;;;23.19;66.12;157329.97;5071435;28;20499;-85
2022/07/25 01:59:55;;;;;;;14.67;13.30;;;;;;;23.15;66.87;157319.47;5072112;28;20473;-85
2022/07/25 02:02:22;;;;;;;13.70;12.40;;;;;;;23.14;67.06;157316.91;5073278;28;20872;-85
2022/07/25 02:04:49;;;;;;;14.37;12.90;;;;;;;23.12;66.81;157312.94;5071699;28;20534;-85
2022/07/25 02:07:15;;;;;;;14.10;12.77;;;;;;;23.10;67.32;157306.41;5072008;28;20572;-85
2022/07/25 02:09:42;;;;;;;14.73;13.23;;;;;;;23.09;67.45;157303.84;5085368;28;20895;-85
2022/07/25 02:12:11;;;;;;;14.60;13.20;;;;;;;23.09;67.63;157305.09;5072835;28;20460;-85
2022/07/25 02:14:37;;;;;;;14.40;13.00;;;;;;;23.07;68.24;157298.56;5076218;28;20858;-85
2022/07/25 02:17:04;;;;;;;15.20;13.80;;;;;;;23.04;67.93;157292.03;5085810;28;20457;-85
2022/07/25 02:19:31;;;;;;;14.97;13.57;;;;;;;23.02;68.09;157286.81;5053871;28;20466;-85
2022/07/25 02:21:58;;;;;;;14.57;13.17;;;;;;;23.00;68.28;157282.94;5088432;28;20548;-86
2022/07/25 02:24:25;;;;;;;14.73;13.30;;;;;;;22.97;68.59;157275.09;5072457;28;20426;-85
2022/07/25 02:26:51;;;;;;;17.87;12.40;;;;;;;22.99;68.87;157280.28;5087838;28;20477;-85
2022/07/25 02:29:28;;;;;;;14.90;13.40;;;;;;;22.94;69.00;157265.91;5071147;28;20476;-85
2022/07/25 02:31:55;;;;;;;16.23;13.57;;;;;;;22.93;68.63;157264.59;5055245;28;20453;-85
2022/07/25 02:34:22;;;;;;;13.97;12.67;;;;;;;22.86;69.12;157245.00;5066553;28;20426;-85
2022/07/25 02:36:49;;;;;;;14.90;13.57;;;;;;;22.87;68.51;157248.97;5070983;28;20536;-85
2022/07/25 02:39:16;;;;;;;13.27;12.17;;;;;;;22.85;68.46;157242.38;5046871;28;20474;-85
2022/07/25 02:41:42;;;;;;;14.00;12.17;;;;;;;22.79;68.58;157228.06;5071974;28;20766;-85
2022/07/25 02:44:09;;;;;;;14.80;13.30;;;;;;;22.81;68.40;157233.25;5071057;28;20434;-85
2022/07/25 02:46:37;;;;;;;13.83;12.53;;;;;;;22.78;68.13;157225.41;5055377;28;20986;-85
2022/07/25 02:49:04;;;;;;;13.43;12.03;;;;;;;22.76;68.18;157218.88;5054023;28;20457;-85
2022/07/25 02:51:31;;;;;;;14.53;13.00;;;;;;;22.72;68.12;157209.72;5054390;28;20450;-85
2022/07/25 02:53:58;;;;;;;13.50;12.10;;;;;;;22.71;67.66;157207.16;5054811;28;20448;-86
2022/07/25 02:56:25;;;;;;;13.20;11.90;;;;;;;22.71;67.41;157205.84;5053163;28;20505;-85
2022/07/25 02:58:52;;;;;;;13.13;11.80;;;;;;;22.67;67.15;157196.66;5070432;28;21014;-85
2022/07/25 03:01:19;;;;;;;12.60;11.40;;;;;;;22.64;67.53;157188.81;5053202;28;20465;-85
2022/07/25 03:03:47;;;;;;;12.63;11.33;;;;;;;22.63;67.43;157186.25;5071875;28;20430;-85
2022/07/25 03:06:14;;;;;;;13.53;12.30;;;;;;;22.60;67.37;157177.03;5051658;28;20434;-85
2022/07/25 03:08:40;;;;;;;13.63;12.33;;;;;;;22.53;67.98;157158.75;5069513;28;20460;-85
2022/07/25 03:11:07;;;;;;;12.03;10.87;;;;;;;22.48;68.29;157146.97;5074929;28;20454;-85
2022/07/25 03:13:34;;;;;;;13.57;12.17;;;;;;;22.43;68.63;157133.91;5062895;28;20430;-85
2022/07/25 03:16:00;;;;;;;13.53;12.23;;;;;;;22.44;68.29;157136.53;5061771;28;20481;-85
2022/07/25 03:18:27;;;;;;;13.80;12.50;;;;;;;22.42;68.32;157131.31;5053021;28;20442;-85
2022/07/25 03:20:55;;;;;;;13.77;12.40;;;;;;;22.42;68.47;157131.31;5053632;28;20557;-85
2022/07/25 03:23:23;;;;;;;12.50;11.20;;;;;;;22.40;67.88;157126.06;5054349;28;21035;-85
2022/07/25 03:25:50;;;;;;;15.73;12.23;;;;;;;22.36;68.44;157116.97;5048044;28;20459;-85
2022/07/25 03:28:17;;;;;;;13.50;12.13;;;;;;;22.32;68.41;157106.47;5071686;28;20453;-85
2022/07/25 03:30:44;;;;;;;13.00;11.80;;;;;;;22.30;68.31;157099.94;5071419;28;20461;-85
2022/07/25 03:33:10;;;;;;;13.20;11.90;;;;;;;22.30;68.66;157101.25;5071939;28;20517;-85
2022/07/25 03:35:37;;;;;;;13.83;12.33;;;;;;;22.29;68.55;157097.38;5052568;28;20458;-85
2022/07/25 03:38:06;;;;;;;13.10;11.90;;;;;;;22.27;68.94;157092.13;5069804;28;20441;-85
2022/07/25 03:40:33;;;;;;;12.80;11.60;;;;;;;22.24;68.74;157084.31;5067049;28;20560;-85
2022/07/25 03:43:00;;;;;;;13.73;12.43;;;;;;;22.24;68.61;157084.31;5052928;28;20491;-85
2022/07/25 03:45:26;;;;;;;13.03;11.73;;;;;;;22.24;68.79;157084.31;5068334;28;20456;-86
2022/07/25 03:47:53;;;;;;;14.03;12.60;;;;;;;22.23;69.00;157081.69;5053732;28;20495;-85
2022/07/25 03:50:20;;;;;;;15.63;11.87;;;;;;;22.20;69.06;157073.84;5071343;28;20488;-85
2022/07/25 03:52:47;;;;;;;14.20;12.30;;;;;;;22.18;68.73;157068.63;5053423;28;20485;-85
2022/07/25 03:55:15;;;;;;;13.20;11.93;;;;;;;22.18;68.82;157068.63;5070085;28;20482;-85
2022/07/25 03:57:42;;;;;;;13.10;11.80;;;;;;;22.17;69.22;157066.00;5069581;28;20498;-85
2022/07/25 04:00:10;;;;;;;14.20;12.70;;;;;;;22.18;68.77;157068.63;5072252;28;20462;-85
2022/07/25 04:02:38;;;;;;;13.23;12.03;;;;;;;22.15;69.03;157062.09;5070783;28;20791;-85
2022/07/25 04:05:06;;;;;;;13.73;12.37;;;;;;;22.16;69.27;157063.41;5067751;28;20871;-85
2022/07/25 04:07:33;;;;;;;13.27;12.00;;;;;;;22.12;69.89;157054.25;5053275;28;20453;-85
2022/07/25 04:09:59;;;;;;;13.33;12.20;;;;;;;22.08;70.17;157042.53;5071165;28;20526;-85
2022/07/25 04:12:27;;;;;;;14.17;12.77;;;;;;;22.07;69.83;157039.88;5062820;28;20788;-85
2022/07/25 04:14:54;;;;;;;14.53;13.07;;;;;;;22.08;69.65;157043.78;5067661;28;20461;-85
2022/07/25 04:17:21;;;;;;;14.90;13.17;;;;;;;22.10;69.71;157047.72;5051685;28;20932;-84
2022/07/25 04:19:47;;;;;;;14.77;13.37;;;;;;;22.07;70.01;157039.88;5086532;28;20505;-85
2022/07/25 04:22:14;;;;;;;13.53;12.13;;;;;;;22.07;70.11;157041.22;5075716;28;20803;-85
2022/07/25 04:24:43;;;;;;;13.73;12.43;;;;;;;22.10;70.17;157049.06;5074622;28;20456;-86
2022/07/25 04:27:10;;;;;;;12.90;11.80;;;;;;;22.15;69.59;157060.78;5076524;28;20437;-85
2022/07/25 04:29:38;;;;;;;13.17;11.87;;;;;;;22.18;69.39;157069.94;5078090;28;20434;-85
2022/07/25 04:32:06;;;;;;;13.30;12.10;;;;;;;22.20;69.56;157075.16;5075426;28;20932;-86
2022/07/25 04:34:32;;;;;;;14.03;12.83;;;;;;;22.21;69.66;157076.47;5076254;28;20836;-86
2022/07/25 04:37:00;;;;;;;13.67;12.17;;;;;;;22.30;69.53;157101.25;5076134;28;20469;-86
2022/07/25 04:39:27;;;;;;;13.20;11.93;;;;;;;22.50;68.87;157150.91;5076287;28;20570;-86
2022/07/25 04:41:54;;;;;;;14.90;13.50;;;;;;;22.63;68.88;157186.25;5068925;28;20789;-85
2022/07/25 04:44:20;;;;;;;14.57;13.07;;;;;;;22.81;68.40;157233.25;5076704;28;20936;-85
2022/07/25 04:46:49;;;;;;;14.70;13.23;;;;;;;22.95;67.88;157269.81;5076583;28;20540;-85
2022/07/25 04:49:15;;;;;;;14.70;13.30;;;;;;;23.10;67.54;157306.41;5077238;28;20516;-85
2022/07/25 04:51:42;;;;;;;13.93;12.53;;;;;;;23.33;66.66;157366.53;5076547;28;20813;-85
2022/07/25 04:54:09;;;;;;;14.50;13.17;;;;;;;23.59;65.70;157434.53;5076723;28;20434;-84
2022/07/25 04:56:35;;;;;;;14.10;12.80;;;;;;;23.85;65.01;157502.56;5076864;28;20425;-85
2022/07/25 04:59:02;;;;;;;13.70;12.50;;;;;;;24.07;64.08;157560.06;5102752;22;20503;-85
2022/07/25 05:01:29;;;;;;;14.83;12.10;;;;;;;24.36;63.37;157633.38;5095842;28;20448;-86
2022/07/25 05:03:57;;;;;;;14.10;12.70;;;;;;;24.60;62.30;157696.13;5098545;28;20425;-87
2022/07/25 05:06:23;;;;;;;13.37;12.17;;;;;;;24.78;62.01;157743.25;5079533;28;20476;-87
2022/07/25 05:08:50;;;;;;;13.40;12.17;;;;;;;25.02;60.42;157804.78;5096808;28;20824;-87
2022/07/25 05:11:17;;;;;;;13.93;12.63;;;;;;;25.19;60.25;157849.25;5078784;28;20529;-87
2022/07/25 05:13:44;;;;;;;13.50;12.10;;;;;;;25.28;59.82;157872.84;5098634;28;20429;-86
2022/07/25 05:16:10;;;;;;;13.37;11.97;;;;;;;25.37;59.35;157896.38;5097248;28;20945;-77
2022/07/25 05:18:37;;;;;;;14.13;12.87;;;;;;;25.44;58.63;157916.00;5094823;28;20514;-77
2022/07/25 05:21:05;;;;;;;12.53;11.43;;;;;;;25.57;58.51;157947.47;5097459;28;20468;-77
2022/07/25 05:23:32;;;;;;;13.70;12.40;;;;;;;25.65;58.12;157968.44;5079651;28;20463;-77
2022/07/25 05:25:58;;;;;;;13.67;12.37;;;;;;;25.72;57.76;157986.72;5097989;28;20425;-77
2022/07/25 05:28:25;;;;;;;13.13;11.87;;;;;;;25.81;57.59;158010.31;5111878;28;20818;-77
2022/07/25 05:30:52;;;;;;;13.67;12.57;;;;;;;25.99;57.21;158057.44;5097014;28;20465;-77
2022/07/25 05:33:18;;;;;;;11.53;10.53;;;;;;;26.21;56.63;158115.06;5092739;28;20449;-78
2022/07/25 05:35:45;;;;;;;13.60;12.27;;;;;;;26.37;56.06;158155.72;5075947;28;20526;-77
2022/07/25 05:38:13;;;;;;;13.20;11.90;;;;;;;26.52;56.16;158195.00;5072228;28;20556;-78
2022/07/25 05:40:40;;;;;;;13.77;11.40;;;;;;;26.69;55.65;158238.22;5094094;28;20518;-78
2022/07/25 05:43:07;;;;;;;13.13;11.80;;;;;;;26.75;55.28;158255.22;5094397;28;20490;-78
2022/07/25 05:45:33;;;;;;;13.87;12.47;;;;;;;26.87;54.66;158285.44;5093979;28;20448;-78
2022/07/25 05:48:00;;;;;;;13.30;12.07;;;;;;;26.99;54.49;158318.16;5091853;28;20441;-78
2022/07/25 05:50:27;;;;;;;13.50;12.30;;;;;;;27.07;54.21;158337.81;5075704;28;20552;-78
2022/07/25 05:52:53;;;;;;;12.90;11.60;;;;;;;27.29;54.15;158395.47;5092620;28;20886;-87
2022/07/25 05:55:21;;;;;;;12.67;11.47;;;;;;;27.38;53.53;158419.03;5092285;28;20484;-87
2022/07/25 05:57:48;;;;;;;13.30;11.43;;;;;;;27.59;54.05;158474.13;5071941;28;20967;-87
2022/07/25 06:00:15;;;;;;;12.83;11.60;;;;;;;27.73;52.87;158510.84;5093570;28;20489;-86
2022/07/25 06:02:42;;;;;;;14.20;12.70;;;;;;;27.92;53.14;158559.34;5075877;28;20457;-86
2022/07/25 06:05:09;;;;;;;14.50;13.10;;;;;;;28.18;52.49;158626.22;5092480;28;20479;-85
2022/07/25 06:07:36;;;;;;;12.60;11.50;;;;;;;28.30;52.45;158657.72;5092934;28;20461;-86
2022/07/25 06:10:03;;;;;;;14.10;12.70;;;;;;;28.40;51.74;158683.94;5086020;28;20771;-85
2022/07/25 06:12:32;;;;;;;13.90;12.70;;;;;;;28.63;51.39;158742.97;5071314;28;20456;-86
2022/07/25 06:14:59;;;;;;;14.10;12.73;;;;;;;28.84;51.09;158799.38;5091559;28;20445;-87
2022/07/25 06:17:26;;;;;;;12.97;11.77;;;;;;;28.99;50.19;158838.72;5091977;28;20559;-86
2022/07/25 06:19:53;;;;;;;13.17;11.83;;;;;;;29.23;49.62;158899.16;5093584;28;20465;-87
2022/07/25 06:22:20;;;;;;;12.50;11.47;;;;;;;29.45;49.67;158956.84;5093671;28;21086;-83
2022/07/25 06:24:46;;;;;;;13.17;11.87;;;;;;;29.40;48.64;158945.06;5074348;28;21005;-83
2022/07/25 06:27:13;;;;;;;14.30;13.00;;;;;;;29.58;48.59;158992.28;5074996;28;20473;-87
2022/07/25 06:29:41;;;;;;;13.40;11.50;;;;;;;29.82;47.15;159052.69;5075410;28;20973;-87
2022/07/25 06:32:08;;;;;;;13.30;12.00;;;;;;;29.99;46.80;159098.66;5074738;28;20536;-86
2022/07/25 06:34:35;;;;;;;12.57;11.37;;;;;;;30.20;46.88;159152.47;5072050;28;20502;-86
2022/07/25 06:37:01;;;;;;;13.03;11.77;;;;;;;30.30;46.18;159177.38;5092554;28;20461;-86
2022/07/25 06:39:28;;;;;;;12.80;11.70;;;;;;;30.37;45.81;159195.84;5092855;28;20425;-86
2022/07/25 06:41:56;;;;;;;13.00;11.90;;;;;;;30.48;45.38;159226.00;5075016;28;20938;-86
2022/07/25 06:44:26;;;;;;;14.27;11.60;;;;;;;30.53;45.71;159239.13;5073735;28;20457;-86
2022/07/25 06:46:54;;;;;;;13.50;11.90;;;;;;;30.84;45.72;159319.25;5092468;28;20482;-86
2022/07/25 06:49:21;;;;;;;13.43;12.27;;;;;;;31.14;45.23;159398.09;5091053;28;20453;-82
2022/07/25 06:51:48;;;;;;;13.67;12.43;;;;;;;31.11;44.39;159390.19;5091122;28;20447;-81
2022/07/25 06:54:14;;;;;;;12.83;11.73;;;;;;;31.12;45.86;159392.84;5105049;28;21009;-81
2022/07/25 06:56:41;;;;;;;12.63;11.63;;;;;;;31.29;45.35;159437.53;5079117;28;20450;-81
2022/07/25 06:59:08;;;;;;;13.30;12.20;;;;;;;31.48;44.66;159484.84;5088786;28;20473;-82
2022/07/25 07:01:35;;;;;;;13.40;12.17;;;;;;;31.71;44.68;159545.28;5091289;28;20469;-82
2022/07/25 07:04:04;;;;;;;12.87;11.70;;;;;;;31.88;44.08;159589.91;5090524;28;20543;-82
2022/07/25 07:06:31;;;;;;;14.43;12.93;;;;;;;32.20;43.49;159672.75;5109864;28;20472;-81
2022/07/25 07:08:57;;;;;;;13.03;11.83;;;;;;;32.27;44.24;159692.50;5092037;28;20521;-81
2022/07/25 07:11:24;;;;;;;12.70;11.60;;;;;;;32.45;43.69;159738.50;5107634;28;20437;-81
2022/07/25 07:14:20;;;;;;;12.87;11.67;;;;;;;32.60;43.36;159776.66;5106785;28;20467;-77
2022/07/25 07:16:58;;;;;;;13.13;11.80;;;;;;;32.65;43.42;159789.78;5045735;28;20444;-77
2022/07/25 07:19:29;;;;;;;11.80;10.80;;;;;;;32.80;42.29;159829.25;5090511;28;20490;-77
2022/07/25 07:21:56;;;;;;;13.40;12.13;;;;;;;32.74;41.22;159814.78;5091620;28;20459;-77
2022/07/25 07:24:23;;;;;;;12.47;11.47;;;;;;;32.73;42.72;159812.16;5090517;28;20915;-77
2022/07/25 07:26:49;;;;;;;12.80;11.60;;;;;;;32.83;42.87;159837.16;5106852;28;20448;-77
2022/07/25 07:29:16;;;;;;;13.00;11.70;;;;;;;33.04;42.02;159892.38;5090859;28;20970;-77
2022/07/25 07:31:43;;;;;;;14.13;12.63;;;;;;;33.23;41.60;159942.34;5088601;28;20475;-77
2022/07/25 07:34:10;;;;;;;13.23;12.13;;;;;;;33.41;41.24;159988.41;5086065;28;20447;-77
2022/07/25 07:36:38;;;;;;;12.83;11.80;;;;;;;33.49;40.87;160009.47;5085952;28;20848;-77
2022/07/25 07:39:05;;;;;;;13.40;12.00;;;;;;;33.43;40.88;159993.66;5084068;28;20444;-77
2022/07/25 07:41:31;;;;;;;13.30;12.20;;;;;;;33.67;40.64;160056.84;5071806;28;20468;-77
2022/07/25 07:43:58;;;;;;;13.03;11.77;;;;;;;33.90;40.30;160116.00;5090080;28;20444;-77
2022/07/25 07:46:25;;;;;;;12.17;11.13;;;;;;;34.03;39.59;160150.22;5073707;28;20863;-77
2022/07/25 07:48:52;;;;;;;13.00;12.00;;;;;;;33.92;39.75;160121.25;5091496;28;20452;-77
2022/07/25 07:51:18;;;;;;;12.23;11.23;;;;;;;34.33;39.04;160229.22;5086964;28;20487;-77
2022/07/25 07:56:36;;;;;;;13.03;11.93;;;;;;;34.61;38.36;160302.94;5052327;28;20430;-77
2022/07/25 07:59:03;;;;;;;14.00;12.57;;;;;;;34.60;38.30;160300.34;5071170;28;20568;-77
2022/07/25 08:01:30;;;;;;;11.70;10.80;;;;;;;34.65;37.91;160313.50;5091123;28;20876;-77
2022/07/25 08:03:57;;;;;;;13.07;12.03;;;;;;;34.64;37.50;160310.84;5090043;28;20546;-77
2022/07/25 08:06:26;;;;;;;13.13;12.00;;;;;;;34.82;38.26;160358.22;5087254;28;20458;-77
2022/07/25 08:08:55;;;;;;;12.70;11.70;;;;;;;34.79;38.21;160349.03;5071219;28;20535;-77
2022/07/25 08:11:21;;;;;;;13.00;12.00;;;;;;;34.93;37.90;160384.53;5090710;28;20456;-77
2022/07/25 08:13:48;;;;;;;12.60;11.60;;;;;;;35.04;37.62;160414.84;5091130;28;20444;-77
2022/07/25 08:16:15;;;;;;;14.00;12.70;;;;;;;35.30;37.32;160482.00;5090700;28;20472;-77
2022/07/25 08:18:41;;;;;;;13.07;11.87;;;;;;;35.42;37.20;160514.94;5072284;28;20450;-77
2022/07/25 08:21:09;;;;;;;13.50;12.50;;;;;;;35.34;37.22;160492.56;5104536;28;20814;-78
2022/07/25 08:23:41;;;;;;;12.50;11.50;;;;;;;35.68;36.66;160582.13;5091814;28;20538;-78
2022/07/25 08:26:08;;;;;;;13.47;12.30;;;;;;;35.97;36.24;160658.53;5087228;28;20491;-78
2022/07/25 08:28:35;;;;;;;12.60;11.70;;;;;;;35.91;35.76;160641.38;5070834;28;20489;-78
2022/07/25 08:31:02;;;;;;;13.50;12.50;;;;;;;35.79;36.10;160609.78;5085341;28;20436;-78
2022/07/25 08:33:29;;;;;;;14.33;13.17;;;;;;;35.94;37.19;160650.63;5090664;28;20451;-77
2022/07/25 08:35:57;;;;;;;12.30;11.23;;;;;;;36.32;35.75;160748.13;5090432;28;20424;-78
2022/07/25 08:38:25;;;;;;;12.47;11.47;;;;;;;36.19;35.02;160713.88;5088238;28;20464;-78
2022/07/25 08:40:52;;;;;;;12.87;11.83;;;;;;;36.35;35.61;160756.03;5088026;28;20484;-78
2022/07/25 08:43:20;;;;;;;12.90;11.80;;;;;;;36.29;34.71;160740.22;5090300;28;20547;-78
2022/07/25 08:45:49;;;;;;;14.37;13.27;;;;;;;36.36;35.20;160758.63;5103667;28;20484;-78
2022/07/25 08:48:17;;;;;;;13.53;12.23;;;;;;;36.41;34.85;160771.81;5089976;28;20523;-77
2022/07/25 08:50:44;;;;;;;14.13;12.93;;;;;;;36.29;34.93;160740.22;5089661;28;20199;-77
2022/07/25 08:53:11;;;;;;;13.17;12.17;;;;;;;36.39;35.25;160767.88;5089045;28;21102;-77
2022/07/25 08:55:38;;;;;;;14.43;12.87;;;;;;;36.31;35.04;160745.47;5089696;28;20442;-78
2022/07/25 08:58:05;;;;;;;13.10;12.20;;;;;;;36.47;35.35;160787.63;5088914;28;20820;-78
2022/07/25 09:00:33;;;;;;;12.20;11.30;;;;;;;36.46;34.02;160785.03;5072406;28;20525;-78
2022/07/25 09:03:01;;;;;;;13.33;12.10;;;;;;;36.68;34.47;160843.00;5090123;28;20706;-78
2022/07/25 09:05:30;;;;;;;12.67;11.70;;;;;;;36.90;33.84;160901.00;5085048;28;20494;-78
2022/07/25 09:07:57;;;;;;;12.03;11.13;;;;;;;36.93;32.07;160908.91;5090985;28;20497;-78
2022/07/25 09:10:26;;;;;;;12.27;11.27;;;;;;;37.12;32.47;160957.72;5109635;28;20215;-78
2022/07/25 09:12:54;;;;;;;11.63;10.80;;;;;;;37.21;33.01;160981.41;5091589;28;20200;-78
2022/07/25 09:15:26;;;;;;;12.20;11.30;;;;;;;37.50;31.19;161057.91;5092930;28;20592;-78
2022/07/25 09:17:56;;;;;;;12.00;11.10;;;;;;;37.73;31.47;161118.53;5093728;28;20225;-78
2022/07/25 09:20:23;;;;;;;11.77;10.87;;;;;;;37.78;31.09;161130.41;5091600;28;20208;-78
2022/07/25 09:22:50;;;;;;;12.77;11.60;;;;;;;37.83;30.31;161142.25;5093289;28;20201;-78
2022/07/25 09:25:23;;;;;;;11.63;10.73;;;;;;;37.62;31.81;161089.56;5094871;28;20206;-78
2022/07/25 09:27:49;;;;;;;11.87;10.90;;;;;;;37.57;31.40;161075.06;5092698;28;20665;-77
2022/07/25 09:30:16;;;;;;;11.80;10.80;;;;;;;37.67;30.01;161101.41;5093526;28;20655;-78
2022/07/25 09:32:44;;;;;;;12.00;11.00;;;;;;;37.45;30.30;161043.41;5093710;28;20195;-78
2022/07/25 09:35:12;;;;;;;11.37;10.57;;;;;;;37.48;30.14;161051.31;5094378;28;20210;-78
2022/07/25 09:37:39;;;;;;;11.83;11.03;;;;;;;37.51;30.41;161059.22;5093309;28;20253;-78
2022/07/25 09:40:13;;;;;;;11.75;10.75;;;;;;;37.56;29.58;161072.41;5089300;28;20715;-78
2022/07/25 09:42:41;;;;;;;11.20;10.40;;;;;;;37.69;30.17;161106.66;5091297;28;20348;-78
2022/07/25 09:45:11;;;;;;;10.60;9.80;;;;;;;37.33;29.46;161013.06;5074218;28;20258;-78
2022/07/25 09:47:49;;;;;;;11.35;10.50;;;;;;;37.33;30.38;161011.75;5080542;28;20327;-78
2022/07/25 09:50:18;;;;;;;11.45;10.65;;;;;;;37.19;30.22;160977.47;5107609;28;20200;-78
2022/07/25 09:52:45;;;;;;;10.82;10.02;;;;;;;37.54;29.89;161067.13;5090309;28;20646;-78
2022/07/25 09:55:12;;;;;;;11.85;11.02;;;;;;;37.17;30.86;160970.91;5091689;28;20214;-78
2022/07/25 09:57:39;;;;;;;11.40;10.60;;;;;;;37.02;30.21;160932.66;5107504;28;20208;-79
2022/07/25 10:00:08;;;;;;;11.35;10.55;;;;;;;37.05;30.25;160939.25;5107102;28;20211;-78
2022/07/25 10:02:47;;;;;;;11.93;11.03;;;;;;;36.35;30.86;160756.03;5088157;28;20224;-78
2022/07/25 10:05:18;;;;;;;12.07;11.17;;;;;;;36.69;31.14;160845.66;5091871;28;20289;-78
2022/07/25 10:07:48;;;;;;;11.20;10.40;;;;;;;36.84;30.49;160883.84;5108972;27;20286;-78
2022/07/25 10:10:24;;;;;;;12.10;11.17;;;;;;;36.39;32.45;160766.56;5094463;28;20215;-78
2022/07/25 10:13:02;;;;;;;11.90;11.00;;;;;;;36.74;31.81;160858.84;5094624;28;20197;-78
2022/07/25 10:15:43;;;;;;;10.53;9.73;;;;;;;37.19;31.27;160976.16;5107192;28;20714;-78
2022/07/25 10:18:10;;;;;;;12.30;11.23;;;;;;;37.07;30.03;160945.81;5085473;28;20215;-78
2022/07/25 10:20:39;;;;;;;12.23;11.23;;;;;;;37.07;30.59;160945.81;5088923;28;20213;-78
2022/07/25 10:23:17;;;;;;;12.37;11.47;;;;;;;37.30;30.21;161003.81;5088645;28;20616;-78
2022/07/25 10:25:44;;;;;;;12.30;11.30;;;;;;;37.20;30.55;160978.81;5091816;28;20200;-78
2022/07/25 10:28:11;;;;;;;12.73;11.53;;;;;;;37.20;30.70;160980.09;5090522;28;20204;-78
2022/07/25 10:30:40;;;;;;;12.00;10.90;;;;;;;37.49;30.53;161053.97;5091520;28;20583;-78
2022/07/25 10:33:12;;;;;;;11.43;10.43;;;;;;;37.49;30.15;161055.25;5087273;28;20237;-78
2022/07/25 10:35:40;;;;;;;11.50;10.60;;;;;;;37.22;30.38;160985.38;5099402;28;20218;-77
2022/07/25 10:38:07;;;;;;;12.80;11.80;;;;;;;37.15;31.57;160965.59;5091153;28;20296;-78
2022/07/25 10:40:36;;;;;;;11.17;10.40;;;;;;;37.36;31.75;161019.66;5090969;28;20298;-78
2022/07/25 10:43:07;;;;;;;11.83;10.83;;;;;;;37.06;30.38;160943.22;5090071;28;20274;-77
2022/07/25 10:45:39;;;;;;;11.87;10.97;;;;;;;36.79;30.95;160872.00;5092673;28;20238;-78
2022/07/25 10:48:13;;;;;;;12.23;11.40;;;;;;;36.75;29.57;160860.16;5107641;28;20202;-78
2022/07/25 10:50:52;;;;;;;12.03;11.10;;;;;;;36.36;30.07;160758.63;5107682;28;20237;-78
2022/07/25 10:53:38;;;;;;;12.43;11.53;;;;;;;35.58;31.83;160555.81;5088867;28;20212;-77
2022/07/25 10:56:09;;;;;;;11.47;10.57;;;;;;;35.99;31.51;160663.78;5090941;28;20208;-78
2022/07/25 10:58:49;;;;;;;11.90;11.00;;;;;;;35.74;32.29;160597.97;5089858;28;20281;-78
2022/07/25 11:01:21;;;;;;;10.80;10.00;;;;;;;35.71;32.21;160588.72;5091891;28;20464;-78
2022/07/25 11:03:48;;;;;;;11.93;10.83;;;;;;;35.97;32.89;160658.53;5077465;28;20756;-78
2022/07/25 11:06:17;;;;;;;11.47;10.47;;;;;;;35.87;31.10;160632.19;5091813;28;20667;-78
2022/07/25 11:08:46;;;;;;;12.53;11.40;;;;;;;35.26;32.11;160472.81;5069899;28;20458;-77
2022/07/25 11:11:13;;;;;;;12.87;11.87;;;;;;;35.66;31.86;160575.56;5087548;28;20543;-78
2022/07/25 11:13:41;;;;;;;12.13;11.07;;;;;;;35.20;32.40;160455.69;5089781;28;20464;-78
2022/07/25 11:16:09;;;;;;;11.27;10.43;;;;;;;35.12;32.83;160434.63;5091834;28;20498;-78